createdAt,value
2018-05-04T00:00:15.640Z,58.57
2018-05-04T00:02:47.753Z,57.67
2018-05-04T00:05:27.198Z,62.57
2018-05-04T00:08:00.839Z,56.40
2018-05-04T00:10:34.284Z,59.23
2018-05-04T00:13:07.480Z,54.23
2018-05-04T00:15:40.044Z,56.50
2018-05-04T00:18:13.339Z,58.30
2018-05-04T00:20:49.057Z,58.03
2018-05-04T00:23:23.638Z,57.07
2018-05-04T00:25:59.321Z,59.00
2018-05-04T00:28:33.497Z,58.30
2018-05-04T00:31:06.761Z,61.57
2018-05-04T00:33:39.580Z,58.47
2018-05-04T00:36:12.939Z,59.73
2018-05-04T00:38:45.058Z,63.77
2018-05-04T00:41:17.438Z,62.80
2018-05-04T00:43:51.376Z,65.30
2018-05-04T00:46:24.280Z,62.83
2018-05-04T00:48:56.920Z,61.30
2018-05-04T00:51:29.201Z,64.03
2018-05-04T00:54:17.776Z,65.40
2018-05-04T00:56:50.714Z,65.53
2018-05-04T00:59:23.822Z,66.63
2018-05-04T01:01:57.196Z,70.30
2018-05-04T01:04:30.522Z,66.73
2018-05-04T01:07:06.156Z,68.97
2018-05-04T01:09:38.623Z,69.17
2018-05-04T01:12:11.281Z,70.33
2018-05-04T01:14:43.325Z,66.87
2018-05-04T01:17:15.698Z,70.17
2018-05-04T01:19:47.743Z,73.33
2018-05-04T01:22:19.838Z,76.13
2018-05-04T01:24:52.783Z,73.23
2018-05-04T01:27:25.684Z,76.00
2018-05-04T01:29:59.005Z,73.40
2018-05-04T01:32:31.682Z,71.53
2018-05-04T01:35:04.399Z,71.47
2018-05-04T01:37:36.708Z,78.83
2018-05-04T01:40:09.557Z,72.80
2018-05-04T01:42:41.941Z,79.20
2018-05-04T01:45:14.056Z,76.07
2018-05-04T01:47:47.120Z,72.73
2018-05-04T01:50:19.143Z,71.10
2018-05-04T01:52:51.795Z,72.20
2018-05-04T01:55:23.840Z,75.57
2018-05-04T01:57:56.236Z,72.73
2018-05-04T02:00:28.442Z,71.67
2018-05-04T02:03:00.886Z,72.07
2018-05-04T02:05:33.196Z,76.40
2018-05-04T02:08:05.620Z,75.93
2018-05-04T02:10:38.459Z,74.43
2018-05-04T02:13:11.938Z,70.00
2018-05-04T02:15:44.757Z,72.53
2018-05-04T02:18:16.959Z,67.60
2018-05-04T02:20:50.199Z,65.70
2018-05-04T02:23:22.598Z,72.50
2018-05-04T02:25:57.162Z,65.03
2018-05-04T02:28:30.403Z,65.70
2018-05-04T02:31:02.965Z,58.27
2018-05-04T02:33:36.801Z,61.30
2018-05-04T02:36:09.067Z,65.03
2018-05-04T02:38:42.838Z,69.07
2018-05-04T02:41:16.281Z,59.13
2018-05-04T02:43:48.777Z,55.10
2018-05-04T02:46:21.360Z,58.60
2018-05-04T02:48:55.627Z,53.10
2018-05-04T02:51:28.063Z,55.27
2018-05-04T02:54:01.060Z,54.23
2018-05-04T02:56:34.978Z,52.67
2018-05-04T02:59:07.816Z,50.90
2018-05-04T03:01:42.300Z,57.10
2018-05-04T03:04:15.187Z,49.83
2018-05-04T03:06:48.828Z,51.20
2018-05-04T03:09:22.039Z,50.13
2018-05-04T03:11:54.260Z,46.93
2018-05-04T03:14:29.381Z,51.67
2018-05-04T03:17:02.304Z,49.10
2018-05-04T03:19:35.866Z,49.03
2018-05-04T03:22:08.024Z,53.27
2018-05-04T03:24:40.725Z,54.43
2018-05-04T03:27:13.102Z,51.13
2018-05-04T03:29:45.838Z,53.33
2018-05-04T03:32:20.023Z,50.93
2018-05-04T03:34:52.742Z,51.50
2018-05-04T03:37:25.063Z,51.97
2018-05-04T03:39:58.864Z,50.43
2018-05-04T03:42:31.390Z,51.40
2018-05-04T03:45:05.281Z,52.23
2018-05-04T03:47:37.323Z,55.70
2018-05-04T03:50:09.376Z,50.07
2018-05-04T03:52:41.762Z,54.63
2018-05-04T03:55:15.461Z,54.73
2018-05-04T03:58:04.079Z,54.13
2018-05-04T04:00:53.761Z,53.90
2018-05-04T04:03:42.283Z,61.30
2018-05-04T04:06:15.122Z,57.23
2018-05-04T04:08:50.459Z,59.73
2018-05-04T04:11:24.240Z,67.40
2018-05-04T04:13:57.437Z,59.43
2018-05-04T04:16:30.459Z,57.97
2018-05-04T04:19:03.760Z,53.13
2018-05-04T04:21:39.403Z,54.93
2018-05-04T04:24:13.523Z,50.20
2018-05-04T04:26:47.043Z,55.33
2018-05-04T04:29:23.480Z,54.00
2018-05-04T04:31:57.420Z,55.90
2018-05-04T04:34:31.557Z,58.83
2018-05-04T04:37:40.060Z,56.47
2018-05-04T04:46:07.247Z,54.30
2018-05-04T04:48:55.543Z,56.80
2018-05-04T04:54:28.279Z,54.57
2018-05-04T05:00:23.268Z,68.83
2018-05-04T05:03:06.162Z,53.77
2018-05-04T05:08:49.545Z,56.07
2018-05-04T05:11:39.503Z,55.67
2018-05-04T05:14:35.085Z,59.53
2018-05-04T05:20:07.943Z,55.27
2018-05-04T05:22:47.102Z,58.17
2018-05-04T05:25:20.122Z,60.20
2018-05-04T05:28:04.382Z,62.23
2018-05-04T05:30:59.463Z,55.83
2018-05-04T05:33:33.117Z,58.40
2018-05-04T05:36:06.082Z,57.87
2018-05-04T05:41:20.241Z,58.57
2018-05-04T05:43:52.285Z,59.17
2018-05-04T05:46:25.283Z,60.53
2018-05-04T05:51:51.529Z,63.77
2018-05-04T05:54:24.239Z,58.07
2018-05-04T05:56:56.562Z,60.90
2018-05-04T05:59:29.207Z,63.60
2018-05-04T06:02:01.367Z,62.80
2018-05-04T06:04:32.507Z,71.57
2018-05-04T06:07:05.977Z,68.50
2018-05-04T06:09:45.365Z,68.30
2018-05-04T06:15:40.707Z,59.50
2018-05-04T06:18:12.341Z,63.20
2018-05-04T06:20:46.797Z,71.73
2018-05-04T06:23:33.066Z,68.60
2018-05-04T06:26:07.017Z,58.63
2018-05-04T06:28:40.743Z,70.37
2018-05-04T06:31:12.063Z,70.10
2018-05-04T06:33:44.898Z,64.87
2018-05-04T06:36:17.781Z,70.10
2018-05-04T06:38:50.384Z,66.20
2018-05-04T06:41:22.202Z,58.00
2018-05-04T06:43:54.344Z,62.57
2018-05-04T06:46:28.145Z,116.60
2018-05-04T06:49:07.068Z,97.87
2018-05-04T06:51:54.166Z,123.33
2018-05-04T06:54:32.442Z,135.93
2018-05-04T06:57:05.040Z,168.00
2018-05-04T06:59:37.358Z,193.80
2018-05-04T07:02:10.067Z,179.37
2018-05-04T07:04:44.718Z,160.50
2018-05-04T07:07:17.006Z,136.83
2018-05-04T07:09:51.183Z,172.73
2018-05-04T07:12:23.664Z,183.13
2018-05-04T07:14:56.258Z,174.63
2018-05-04T07:20:51.581Z,127.23
2018-05-04T07:23:26.403Z,185.07
2018-05-04T07:25:58.999Z,163.87
2018-05-04T07:28:31.463Z,163.63
2018-05-04T07:31:04.783Z,178.80
2018-05-04T07:34:00.779Z,184.63
2018-05-04T07:36:46.159Z,141.17
2018-05-04T07:39:20.043Z,125.33
2018-05-04T07:41:53.421Z,217.00
2018-05-04T07:44:32.802Z,188.97
2018-05-04T07:47:27.478Z,195.90
2018-05-04T07:53:29.344Z,358.00
2018-05-04T07:56:02.897Z,261.37
2018-05-04T07:58:47.462Z,251.00
2018-05-04T08:07:55.760Z,1093.78
2018-05-04T08:10:29.624Z,434.20
2018-05-04T08:13:01.559Z,323.50
2018-05-04T08:15:38.047Z,324.70
2018-05-04T08:18:09.737Z,240.17
2018-05-04T08:20:48.705Z,301.03
2018-05-04T08:23:29.518Z,282.97
2018-05-04T08:26:02.879Z,306.07
2018-05-04T08:28:40.003Z,352.00
2018-05-04T08:31:35.059Z,313.47
2018-05-04T08:34:14.221Z,296.60
2018-05-04T08:37:07.069Z,332.80
2018-05-04T08:39:58.689Z,251.73
2018-05-04T08:42:48.146Z,252.37
2018-05-04T08:45:22.422Z,342.73
2018-05-04T08:48:06.600Z,303.13
2018-05-04T08:50:52.144Z,276.70
2018-05-04T08:53:25.460Z,302.77
2018-05-04T08:56:04.399Z,281.43
2018-05-04T08:58:41.982Z,251.77
2018-05-04T09:01:15.202Z,293.77
2018-05-04T09:03:54.667Z,214.10
2018-05-04T09:06:31.518Z,208.80
2018-05-04T09:09:08.108Z,298.77
2018-05-04T09:11:41.714Z,211.60
2018-05-04T09:14:16.905Z,241.40
2018-05-04T09:16:52.798Z,205.83
2018-05-04T09:19:27.062Z,281.70
2018-05-04T09:22:00.541Z,259.67
2018-05-04T09:24:35.838Z,301.63
2018-05-04T09:27:08.689Z,257.80
2018-05-04T09:29:41.280Z,276.03
2018-05-04T09:32:14.684Z,220.23
2018-05-04T09:34:52.080Z,194.93
2018-05-04T09:37:30.078Z,233.73
2018-05-04T09:40:03.402Z,224.37
2018-05-04T09:42:36.943Z,239.50
2018-05-04T09:45:14.738Z,350.20
2018-05-04T09:54:25.853Z,172.53
2018-05-04T09:57:03.103Z,273.73
2018-05-04T09:59:37.558Z,210.90
2018-05-04T10:02:17.222Z,242.67
2018-05-04T10:05:04.787Z,264.47
2018-05-04T10:10:44.787Z,266.40
2018-05-04T10:13:42.101Z,290.30
2018-05-04T10:16:18.078Z,215.13
2018-05-04T10:22:09.301Z,226.80
2018-05-04T10:24:46.784Z,222.87
2018-05-04T10:27:20.521Z,253.17
2018-05-04T10:29:58.440Z,272.93
2018-05-04T10:32:31.085Z,297.20
2018-05-04T10:35:38.380Z,353.83
2018-05-04T10:38:11.760Z,267.27
2018-05-04T10:40:47.483Z,263.00
2018-05-04T10:43:22.936Z,329.27
2018-05-04T10:45:55.943Z,347.80
2018-05-04T10:48:30.682Z,316.33
2018-05-04T10:51:04.819Z,321.10
2018-05-04T10:53:37.487Z,302.53
2018-05-04T10:56:10.424Z,326.53
2018-05-04T10:58:42.560Z,325.33
2018-05-04T11:01:16.138Z,284.43
2018-05-04T11:03:51.442Z,285.60
2018-05-04T11:27:15.846Z,343.00
2018-05-04T11:29:49.021Z,339.37
2018-05-04T11:32:22.158Z,380.13
2018-05-04T11:34:56.800Z,377.73
2018-05-04T11:37:33.341Z,283.17
2018-05-04T11:40:08.202Z,340.20
2018-05-04T11:42:44.846Z,239.57
2018-05-04T11:45:22.397Z,319.37
2018-05-04T11:47:57.725Z,365.70
2018-05-04T11:50:32.715Z,366.83
2018-05-04T11:53:05.778Z,311.73
2018-05-04T11:55:41.117Z,380.67
2018-05-04T11:58:14.560Z,337.17
2018-05-04T12:00:50.543Z,309.63
2018-05-04T12:03:25.381Z,319.57
2018-05-04T12:05:58.280Z,312.47
2018-05-04T12:08:31.275Z,288.37
2018-05-04T12:11:05.461Z,316.90
2018-05-04T12:13:41.000Z,213.03
2018-05-04T12:16:15.900Z,328.03
2018-05-04T12:18:51.065Z,355.00
2018-05-04T12:21:24.290Z,361.37
2018-05-04T12:23:57.143Z,319.67
2018-05-04T12:26:29.286Z,373.10
2018-05-04T12:29:02.502Z,397.07
2018-05-04T12:31:35.283Z,371.97
2018-05-04T12:34:10.144Z,470.07
2018-05-04T12:36:44.003Z,366.70
2018-05-04T12:39:20.341Z,436.60
2018-05-04T12:41:53.038Z,382.13
2018-05-04T12:44:26.537Z,384.53
2018-05-04T12:47:01.442Z,353.53
2018-05-04T12:49:36.898Z,343.70
2018-05-04T12:52:09.581Z,373.33
2018-05-04T12:54:46.578Z,390.17
2018-05-04T12:57:21.023Z,334.23
2018-05-04T12:59:57.664Z,314.37
2018-05-04T13:02:32.501Z,328.03
2018-05-04T13:05:07.845Z,437.70
2018-05-04T13:07:45.422Z,388.23
2018-05-04T13:10:24.707Z,410.83
2018-05-04T13:12:58.162Z,437.50
2018-05-04T13:15:32.324Z,385.23
2018-05-04T13:18:06.019Z,314.67
2018-05-04T13:20:39.021Z,296.23
2018-05-04T13:23:11.742Z,347.97
2018-05-04T13:25:46.161Z,434.80
2018-05-04T13:28:20.621Z,352.20
2018-05-04T13:30:55.065Z,338.90
2018-05-04T13:33:30.547Z,307.43
2018-05-04T13:36:06.581Z,346.77
2018-05-04T13:38:40.355Z,381.90
2018-05-04T13:41:13.302Z,316.20
2018-05-04T13:43:48.043Z,266.63
2018-05-04T13:46:26.166Z,334.63
2018-05-04T13:48:59.504Z,357.60
2018-05-04T13:51:33.090Z,338.73
2018-05-04T13:54:08.451Z,346.60
2018-05-04T13:56:45.282Z,323.10
2018-05-04T13:59:18.021Z,317.70
2018-05-04T14:01:54.461Z,346.57
2018-05-04T14:04:29.700Z,369.07
2018-05-04T14:07:11.862Z,356.13
2018-05-04T14:09:48.681Z,371.47
2018-05-04T14:12:22.736Z,358.87
2018-05-04T14:14:55.746Z,327.50
2018-05-04T14:17:29.116Z,302.80
2018-05-04T14:20:02.143Z,348.40
2018-05-04T14:22:35.864Z,340.63
2018-05-04T14:25:10.287Z,306.33
2018-05-04T14:27:46.566Z,330.20
2018-05-04T14:30:22.358Z,342.83
2018-05-04T14:32:55.156Z,333.47
2018-05-04T14:35:28.260Z,284.03
2018-05-04T14:38:01.581Z,341.63
2018-05-04T14:40:34.942Z,384.87
2018-05-04T14:43:08.384Z,1221.77
2018-05-04T14:45:41.019Z,1038.90
2018-05-04T14:48:15.317Z,1323.63
2018-05-04T14:50:49.301Z,1407.57
2018-05-04T14:53:24.461Z,1170.67
2018-05-04T14:55:58.063Z,939.73
2018-05-04T14:58:30.667Z,616.67
2018-05-04T15:01:04.181Z,587.90
2018-05-04T15:03:37.478Z,853.40
2018-05-04T15:06:11.780Z,861.77
2018-05-04T15:08:45.103Z,838.13
2018-05-04T15:11:21.917Z,867.67
2018-05-04T15:14:02.519Z,838.17
2018-05-04T15:16:35.403Z,822.10
2018-05-04T15:19:08.120Z,643.07
2018-05-04T15:21:42.501Z,905.53
2018-05-04T15:24:16.619Z,854.53
2018-05-04T15:26:49.878Z,857.97
2018-05-04T15:29:27.485Z,907.83
2018-05-04T15:32:03.639Z,729.07
2018-05-04T15:34:38.689Z,718.63
2018-05-04T15:37:14.855Z,794.80
2018-05-04T15:39:49.785Z,690.07
2018-05-04T15:42:23.266Z,688.10
2018-05-04T15:45:01.138Z,677.80
2018-05-04T15:47:35.899Z,633.90
2018-05-04T15:50:16.224Z,780.03
2018-05-04T15:52:51.319Z,746.73
2018-05-04T15:55:26.741Z,712.63
2018-05-04T15:58:00.165Z,826.93
2018-05-04T16:00:33.840Z,945.07
2018-05-04T16:03:07.005Z,918.77
2018-05-04T16:05:42.523Z,875.90
2018-05-04T16:08:19.006Z,903.43
2018-05-04T16:10:52.344Z,840.47
2018-05-04T16:13:26.820Z,980.00
2018-05-04T16:16:02.084Z,807.63
2018-05-04T16:18:35.283Z,693.90
2018-05-04T16:21:08.881Z,1003.30
2018-05-04T16:23:42.841Z,1023.00
2018-05-04T16:26:18.679Z,845.93
2018-05-04T16:28:53.759Z,786.90
2018-05-04T16:31:28.543Z,711.17
2018-05-04T16:34:03.769Z,745.80
2018-05-04T16:36:36.484Z,645.20
2018-05-04T16:39:10.960Z,1295.77
2018-05-04T16:41:45.295Z,946.10
2018-05-04T16:44:19.126Z,793.40
2018-05-04T16:46:57.077Z,697.67
2018-05-04T16:49:30.244Z,680.07
2018-05-04T16:52:04.338Z,780.67
2018-05-04T16:54:39.195Z,672.90
2018-05-04T16:57:12.059Z,832.30
2018-05-04T16:59:46.187Z,678.73
2018-05-04T17:02:18.920Z,566.70
2018-05-04T17:04:54.724Z,767.37
2018-05-04T17:07:27.420Z,746.80
2018-05-04T17:10:04.123Z,759.73
2018-05-04T17:12:36.562Z,1016.43
2018-05-04T17:15:13.279Z,1051.43
2018-05-04T17:17:48.059Z,1009.50
2018-05-04T17:20:23.820Z,1195.47
2018-05-04T17:23:01.824Z,1212.17
2018-05-04T17:25:37.725Z,1318.57
2018-05-04T17:28:14.343Z,1155.90
2018-05-04T17:30:51.847Z,1219.80
2018-05-04T17:33:25.397Z,1336.07
2018-05-04T17:35:59.800Z,1333.87
2018-05-04T17:38:33.898Z,1309.53
2018-05-04T17:41:08.242Z,1290.33
2018-05-04T17:43:42.483Z,1363.30
2018-05-04T17:46:18.145Z,1297.17
2018-05-04T17:48:51.020Z,1132.53
2018-05-04T17:51:25.063Z,1435.83
2018-05-04T17:53:57.537Z,1343.50
2018-05-04T17:56:33.143Z,1319.07
2018-05-04T17:59:10.102Z,1598.73
2018-05-04T18:01:42.803Z,1215.93
2018-05-04T18:04:16.365Z,1332.03
2018-05-04T18:06:49.979Z,1853.17
2018-05-04T18:09:26.247Z,1781.83
2018-05-04T18:12:00.962Z,1546.00
2018-05-04T18:14:33.782Z,1642.20
2018-05-04T18:17:06.759Z,1350.80
2018-05-04T18:19:40.507Z,1272.23
2018-05-04T18:22:13.199Z,1258.90
2018-05-04T18:24:46.797Z,1854.13
2018-05-04T18:27:21.419Z,1274.67
2018-05-04T18:29:55.121Z,1354.23
2018-05-04T18:32:32.480Z,1634.23
2018-05-04T18:35:06.978Z,1356.50
2018-05-04T18:37:40.962Z,1564.90
2018-05-04T18:40:17.364Z,1619.23
2018-05-04T18:42:50.987Z,1838.43
2018-05-04T18:45:25.220Z,1406.57
2018-05-04T18:47:57.979Z,1825.60
2018-05-04T18:50:30.542Z,1326.27
2018-05-04T18:53:05.679Z,1662.37
2018-05-04T18:55:42.721Z,1695.00
2018-05-04T18:58:15.900Z,1547.20
2018-05-04T19:00:52.121Z,1703.63
2018-05-04T19:03:24.444Z,1326.13
2018-05-04T19:05:58.923Z,1391.97
2018-05-04T19:08:32.143Z,1315.70
2018-05-04T19:11:06.651Z,1248.57
2018-05-04T19:13:39.001Z,1118.57
2018-05-04T19:16:14.062Z,1205.77
2018-05-04T19:18:48.644Z,1051.00
2018-05-04T19:21:23.281Z,1160.63
2018-05-04T19:23:57.086Z,1160.50
2018-05-04T19:26:30.492Z,1040.90
2018-05-04T19:29:03.029Z,1066.50
2018-05-04T19:31:35.485Z,1062.70
2018-05-04T19:34:07.922Z,749.57
2018-05-04T19:36:43.365Z,839.03
2018-05-04T19:39:18.923Z,858.40
2018-05-04T19:41:52.276Z,386.70
2018-05-04T19:44:30.103Z,246.40
2018-05-04T19:47:03.419Z,139.13
2018-05-04T19:49:36.479Z,328.47
2018-05-04T19:52:09.644Z,175.40
2018-05-04T19:54:42.444Z,287.00
2018-05-04T19:57:17.121Z,272.97
2018-05-04T19:59:49.982Z,56.30
2018-05-04T20:02:22.884Z,67.67
2018-05-04T20:04:54.829Z,45.60
2018-05-04T20:07:27.258Z,37.90
2018-05-04T20:09:59.802Z,55.83
2018-05-04T20:12:33.103Z,51.17
2018-05-04T20:15:05.699Z,64.73
2018-05-04T20:17:38.959Z,83.07
2018-05-04T20:20:12.048Z,64.67
2018-05-04T20:22:46.397Z,52.73
2018-05-04T20:25:20.563Z,137.07
2018-05-04T20:27:52.940Z,34.57
2018-05-04T20:30:30.407Z,75.50
2018-05-04T20:33:03.333Z,141.40
2018-05-04T20:35:36.581Z,37.97
2018-05-04T20:38:09.839Z,457.33
2018-05-04T20:40:43.785Z,236.97
2018-05-04T20:43:17.083Z,159.60
2018-05-04T20:45:48.842Z,412.27
2018-05-04T20:48:24.363Z,174.43
2018-05-04T20:50:57.055Z,236.80
2018-05-04T20:53:30.819Z,264.10
2018-05-04T20:56:05.979Z,281.40
2018-05-04T20:58:39.724Z,471.90
2018-05-04T21:01:12.584Z,287.83
2018-05-04T21:03:45.065Z,152.50
2018-05-04T21:06:18.732Z,128.10
2018-05-04T21:08:51.136Z,262.63
2018-05-04T21:11:24.324Z,121.87
2018-05-04T21:13:56.772Z,170.30
2018-05-04T21:16:29.398Z,219.73
2018-05-04T21:19:03.958Z,143.80
2018-05-04T21:21:36.965Z,95.17
2018-05-04T21:24:10.120Z,80.53
2018-05-04T21:26:43.083Z,109.80
2018-05-04T21:29:16.627Z,41.27
2018-05-04T21:31:49.303Z,32.47
2018-05-04T21:34:21.676Z,39.30
2018-05-04T21:36:55.283Z,46.77
2018-05-04T21:39:28.139Z,54.53
2018-05-04T21:42:01.547Z,51.00
2018-05-04T21:44:33.696Z,47.70
2018-05-04T21:47:06.022Z,51.13
2018-05-04T21:49:38.105Z,34.47
2018-05-04T21:52:11.066Z,80.67
2018-05-04T21:54:42.899Z,51.17
2018-05-04T21:57:15.596Z,55.97
2018-05-04T21:59:47.775Z,57.87
2018-05-04T22:02:20.986Z,42.90
2018-05-04T22:04:54.663Z,63.73
2018-05-04T22:07:30.203Z,59.87
2018-05-04T22:10:03.478Z,65.20
2018-05-04T22:31:41.048Z,115.83
2018-05-04T22:34:13.851Z,264.87
2018-05-04T22:36:45.989Z,97.70
2018-05-04T22:39:17.588Z,172.20
2018-05-04T22:41:50.410Z,131.33
2018-05-04T22:44:23.755Z,62.37
2018-05-04T22:46:56.890Z,89.70
2018-05-04T22:49:29.750Z,207.10
2018-05-04T22:52:01.489Z,119.40
2018-05-04T22:54:33.712Z,61.57
2018-05-04T22:57:05.896Z,90.67
2018-05-04T23:50:31.660Z,81.07
2018-05-04T23:53:04.656Z,601.83
2018-05-04T23:55:36.636Z,110.97
2018-05-04T23:58:09.361Z,297.93
